createdAt,value
2019-02-14T00:01:40.716Z,7.00
2019-02-14T00:04:06.918Z,7.10
2019-02-14T00:06:33.020Z,7.10
2019-02-14T00:09:01.176Z,7.00
2019-02-14T00:11:27.306Z,7.00
2019-02-14T00:13:53.397Z,7.00
2019-02-14T00:16:19.569Z,7.00
2019-02-14T00:18:45.720Z,7.10
2019-02-14T00:21:11.772Z,7.00
2019-02-14T00:23:37.851Z,7.00
2019-02-14T00:26:03.878Z,7.00
2019-02-14T00:28:29.899Z,7.00
2019-02-14T00:30:55.961Z,7.00
2019-02-14T00:33:22.022Z,7.00
2019-02-14T00:35:48.130Z,7.00
2019-02-14T00:38:14.396Z,7.00
2019-02-14T00:40:40.744Z,7.00
2019-02-14T00:43:06.965Z,7.10
2019-02-14T00:45:34.702Z,7.00
2019-02-14T00:48:01.582Z,7.10
2019-02-14T00:50:27.630Z,7.10
2019-02-14T00:52:53.699Z,7.10
2019-02-14T00:55:19.760Z,7.00
2019-02-14T00:57:45.846Z,7.00
2019-02-14T01:00:12.004Z,7.00
2019-02-14T01:02:38.038Z,6.90
2019-02-14T01:05:05.291Z,6.90
2019-02-14T01:07:31.532Z,6.80
2019-02-14T01:09:57.580Z,6.90
2019-02-14T01:12:23.644Z,6.80
2019-02-14T01:14:49.666Z,6.80
2019-02-14T01:17:16.016Z,6.70
2019-02-14T01:19:42.099Z,6.60
2019-02-14T01:22:09.273Z,6.60
2019-02-14T01:24:37.374Z,6.50
2019-02-14T01:27:03.558Z,6.40
2019-02-14T01:29:29.589Z,6.40
2019-02-14T01:31:55.614Z,6.40
2019-02-14T01:34:21.651Z,6.40
2019-02-14T01:36:47.727Z,6.40
2019-02-14T01:39:13.749Z,6.40
2019-02-14T01:41:39.789Z,6.40
2019-02-14T01:44:05.837Z,6.40
2019-02-14T01:46:31.867Z,6.40
2019-02-14T01:48:57.891Z,6.40
2019-02-14T01:51:23.980Z,6.40
2019-02-14T01:53:50.006Z,6.40
2019-02-14T01:56:16.047Z,6.40
2019-02-14T01:58:42.095Z,6.30
2019-02-14T02:01:08.143Z,6.30
2019-02-14T02:03:34.379Z,6.30
2019-02-14T02:06:00.436Z,6.30
2019-02-14T02:08:31.412Z,6.30
2019-02-14T02:10:57.462Z,6.30
2019-02-14T02:13:23.541Z,6.30
2019-02-14T02:15:49.609Z,6.30
2019-02-14T02:18:15.876Z,6.30
2019-02-14T02:20:41.949Z,6.20
2019-02-14T02:23:07.997Z,6.20
2019-02-14T02:25:34.138Z,6.10
2019-02-14T02:28:00.180Z,6.10
2019-02-14T02:30:26.209Z,6.00
2019-02-14T02:32:52.579Z,6.00
2019-02-14T02:35:18.606Z,5.90
2019-02-14T02:37:44.643Z,5.90
2019-02-14T02:40:10.699Z,5.80
2019-02-14T02:42:46.975Z,5.80
2019-02-14T02:45:13.085Z,5.80
2019-02-14T02:47:39.104Z,5.80
2019-02-14T02:50:08.255Z,5.80
2019-02-14T02:52:34.588Z,5.80
2019-02-14T02:55:01.432Z,5.80
2019-02-14T02:57:27.545Z,5.80
2019-02-14T02:59:53.641Z,5.90
2019-02-14T03:02:19.656Z,5.90
2019-02-14T03:04:47.623Z,5.90
2019-02-14T03:07:13.695Z,5.90
2019-02-14T03:09:39.751Z,6.00
2019-02-14T03:12:05.872Z,6.00
2019-02-14T03:14:31.936Z,6.10
2019-02-14T03:16:57.979Z,6.10
2019-02-14T03:19:24.325Z,6.00
2019-02-14T03:21:51.012Z,6.00
2019-02-14T03:24:17.080Z,5.90
2019-02-14T03:26:43.136Z,6.00
2019-02-14T03:29:09.179Z,6.00
2019-02-14T03:31:35.351Z,6.00
2019-02-14T03:34:01.395Z,6.00
2019-02-14T03:36:27.432Z,6.00
2019-02-14T03:38:53.487Z,6.10
2019-02-14T03:41:19.510Z,6.10
2019-02-14T03:43:45.621Z,6.10
2019-02-14T03:46:11.967Z,6.00
2019-02-14T03:48:38.070Z,6.00
2019-02-14T03:51:04.400Z,6.10
2019-02-14T03:53:31.861Z,6.10
2019-02-14T03:55:58.011Z,6.00
2019-02-14T03:58:24.130Z,5.90
2019-02-14T04:00:50.178Z,5.90
2019-02-14T04:03:16.219Z,5.90
2019-02-14T04:05:42.300Z,5.90
2019-02-14T04:08:08.408Z,5.90
2019-02-14T04:10:34.468Z,5.80
2019-02-14T04:13:00.580Z,5.80
2019-02-14T04:15:26.712Z,5.90
2019-02-14T04:17:52.728Z,6.00
2019-02-14T04:20:19.650Z,6.00
2019-02-14T04:22:45.882Z,6.00
2019-02-14T04:25:12.074Z,5.90
2019-02-14T04:27:38.156Z,6.00
2019-02-14T04:30:07.775Z,6.00
2019-02-14T04:32:33.851Z,6.00
2019-02-14T04:34:59.932Z,6.00
2019-02-14T04:37:25.998Z,6.00
2019-02-14T04:39:52.069Z,6.00
2019-02-14T04:42:18.080Z,6.00
2019-02-14T04:44:44.176Z,6.00
2019-02-14T04:47:10.228Z,6.00
2019-02-14T04:49:36.282Z,6.00
2019-02-14T04:52:02.610Z,6.00
2019-02-14T04:54:28.634Z,6.00
2019-02-14T04:56:54.659Z,6.00
2019-02-14T04:59:20.782Z,6.00
2019-02-14T05:01:47.200Z,6.00
2019-02-14T05:04:13.237Z,5.90
2019-02-14T05:06:44.358Z,5.90
2019-02-14T05:09:08.288Z,5.90
2019-02-14T05:11:34.351Z,5.80
2019-02-14T05:14:00.399Z,5.90
2019-02-14T05:16:26.428Z,5.90
2019-02-14T05:18:52.483Z,5.90
2019-02-14T05:21:18.515Z,5.90
2019-02-14T05:23:44.884Z,6.00
2019-02-14T05:26:10.911Z,6.00
2019-02-14T05:28:37.045Z,6.10
2019-02-14T05:31:03.184Z,6.10
2019-02-14T05:33:30.273Z,6.10
2019-02-14T05:35:56.312Z,6.10
2019-02-14T05:38:22.459Z,6.00
2019-02-14T05:40:48.504Z,6.00
2019-02-14T05:43:14.535Z,6.00
2019-02-14T05:45:41.055Z,5.90
2019-02-14T05:48:07.117Z,5.90
2019-02-14T05:50:33.152Z,5.90
2019-02-14T05:52:59.299Z,5.80
2019-02-14T05:55:25.362Z,5.80
2019-02-14T05:57:51.392Z,5.80
2019-02-14T06:00:18.918Z,5.80
2019-02-14T06:02:44.983Z,5.90
2019-02-14T06:05:11.248Z,5.90
2019-02-14T06:07:37.283Z,5.80
2019-02-14T06:10:06.546Z,5.80
2019-02-14T06:12:32.596Z,5.90
2019-02-14T06:14:58.628Z,5.90
2019-02-14T06:17:24.679Z,5.90
2019-02-14T06:19:50.705Z,6.10
2019-02-14T06:22:16.784Z,6.10
2019-02-14T06:24:43.572Z,6.10
2019-02-14T06:27:09.718Z,6.10
2019-02-14T06:29:35.752Z,6.20
2019-02-14T06:32:02.119Z,6.10
2019-02-14T06:34:28.132Z,6.10
2019-02-14T06:36:54.176Z,6.10
2019-02-14T06:39:22.119Z,6.10
2019-02-14T06:41:48.445Z,6.00
2019-02-14T06:44:14.467Z,6.00
2019-02-14T06:46:40.562Z,6.00
2019-02-14T06:49:08.100Z,6.10
2019-02-14T06:51:35.238Z,6.10
2019-02-14T06:54:01.690Z,6.10
2019-02-14T06:56:27.815Z,6.00
2019-02-14T06:58:53.925Z,6.00
2019-02-14T07:01:23.059Z,6.00
2019-02-14T07:03:49.302Z,6.10
2019-02-14T07:06:15.538Z,6.10
2019-02-14T07:08:41.575Z,6.10
2019-02-14T07:11:07.623Z,6.10
2019-02-14T07:13:34.604Z,6.20
2019-02-14T07:16:06.775Z,6.20
2019-02-14T07:18:32.900Z,6.20
2019-02-14T07:20:59.091Z,6.10
2019-02-14T07:23:25.322Z,6.10
2019-02-14T07:25:51.339Z,6.10
2019-02-14T07:28:17.434Z,6.10
2019-02-14T07:30:43.481Z,6.00
2019-02-14T07:33:09.549Z,6.10
2019-02-14T07:35:35.710Z,6.10
2019-02-14T07:38:01.763Z,6.10
2019-02-14T07:40:29.650Z,6.20
2019-02-14T07:42:56.027Z,6.20
2019-02-14T07:45:22.252Z,6.30
2019-02-14T07:47:48.301Z,6.40
2019-02-14T07:50:14.358Z,6.50
2019-02-14T07:52:40.402Z,6.60
2019-02-14T07:55:11.336Z,6.60
2019-02-14T07:57:37.764Z,6.60
2019-02-14T08:00:10.598Z,6.60
2019-02-14T08:02:36.707Z,6.60
2019-02-14T08:05:03.956Z,6.60
2019-02-14T08:07:35.704Z,6.50
2019-02-14T08:09:57.977Z,6.50
2019-02-14T08:12:24.113Z,6.60
2019-02-14T08:14:50.234Z,6.60
2019-02-14T08:17:16.359Z,6.60
2019-02-14T08:19:42.394Z,6.70
2019-02-14T08:22:08.428Z,6.70
2019-02-14T08:24:34.560Z,6.70
2019-02-14T08:27:00.690Z,6.80
2019-02-14T08:29:26.772Z,6.90
2019-02-14T08:31:53.034Z,7.00
2019-02-14T08:34:19.280Z,7.00
2019-02-14T08:36:45.354Z,7.00
2019-02-14T08:39:11.383Z,7.30
2019-02-14T08:41:37.435Z,7.40
2019-02-14T08:44:03.483Z,7.40
2019-02-14T08:46:29.548Z,7.50
2019-02-14T08:48:55.580Z,7.50
2019-02-14T08:51:21.878Z,7.50
2019-02-14T08:53:48.063Z,7.50
2019-02-14T08:56:14.264Z,7.40
2019-02-14T08:58:40.415Z,7.60
2019-02-14T09:01:06.440Z,7.80
2019-02-14T09:03:32.468Z,7.70
2019-02-14T09:05:58.544Z,7.80
2019-02-14T09:08:24.554Z,7.90
2019-02-14T09:10:50.576Z,8.00
2019-02-14T09:13:17.425Z,8.00
2019-02-14T09:15:43.656Z,7.90
2019-02-14T09:18:09.682Z,7.80
2019-02-14T09:20:35.711Z,7.80
2019-02-14T09:23:01.747Z,7.70
2019-02-14T09:25:27.776Z,7.80
2019-02-14T09:27:53.833Z,7.70
2019-02-14T09:30:19.863Z,7.60
2019-02-14T09:32:46.189Z,7.60
2019-02-14T09:35:12.225Z,7.70
2019-02-14T09:37:38.251Z,7.70
2019-02-14T09:40:12.883Z,7.70
2019-02-14T09:42:38.931Z,7.80
2019-02-14T09:45:08.060Z,7.70
2019-02-14T09:47:34.193Z,7.70
2019-02-14T09:50:00.292Z,7.90
2019-02-14T09:52:26.469Z,7.90
2019-02-14T09:54:52.532Z,7.90
2019-02-14T09:57:18.657Z,8.10
2019-02-14T09:59:44.690Z,8.00
2019-02-14T10:02:10.739Z,8.00
2019-02-14T10:04:36.815Z,8.20
2019-02-14T10:07:02.912Z,8.20
2019-02-14T10:09:28.935Z,8.30
2019-02-14T10:11:54.977Z,8.30
2019-02-14T10:14:21.006Z,8.30
2019-02-14T10:16:47.032Z,8.10
2019-02-14T10:19:13.064Z,8.10
2019-02-14T10:21:45.377Z,8.10
2019-02-14T10:24:11.387Z,8.30
2019-02-14T10:26:37.421Z,8.40
2019-02-14T10:29:03.467Z,8.50
2019-02-14T10:31:29.496Z,8.50
2019-02-14T10:33:55.509Z,8.70
2019-02-14T10:36:21.679Z,8.70
2019-02-14T10:38:47.709Z,8.80
2019-02-14T10:41:13.735Z,8.80
2019-02-14T10:43:48.443Z,8.90
2019-02-14T10:46:07.764Z,8.80
2019-02-14T10:48:33.798Z,8.80
2019-02-14T10:50:59.919Z,8.80
2019-02-14T10:53:25.945Z,8.90
2019-02-14T10:55:52.096Z,9.00
2019-02-14T10:58:18.166Z,9.10
2019-02-14T11:00:45.359Z,9.00
2019-02-14T11:03:11.763Z,9.10
2019-02-14T11:05:37.841Z,9.10
2019-02-14T11:08:03.863Z,9.00
2019-02-14T11:10:30.257Z,9.10
2019-02-14T11:12:56.289Z,9.20
2019-02-14T11:15:23.425Z,9.30
2019-02-14T11:17:49.466Z,9.30
2019-02-14T11:20:17.760Z,9.30
2019-02-14T11:22:43.596Z,9.30
2019-02-14T11:25:22.492Z,9.40
2019-02-14T11:27:48.536Z,9.50
2019-02-14T11:30:14.597Z,9.40
2019-02-14T11:32:40.624Z,9.50
2019-02-14T11:35:08.480Z,9.40
2019-02-14T11:37:35.086Z,9.40
2019-02-14T11:40:01.108Z,9.50
2019-02-14T11:42:27.151Z,9.40
2019-02-14T11:44:53.185Z,9.40
2019-02-14T11:47:19.215Z,9.60
2019-02-14T11:49:45.266Z,9.70
2019-02-14T11:52:11.291Z,9.80
2019-02-14T11:54:37.655Z,9.90
2019-02-14T11:57:03.776Z,9.90
2019-02-14T11:59:29.813Z,10.00
2019-02-14T12:01:55.825Z,10.00
2019-02-14T12:04:21.896Z,10.00
2019-02-14T12:06:47.989Z,10.00
2019-02-14T12:09:14.181Z,10.00
2019-02-14T12:11:40.249Z,10.00
2019-02-14T12:14:06.367Z,10.10
2019-02-14T12:16:32.451Z,10.10
2019-02-14T12:18:58.534Z,10.20
2019-02-14T12:21:24.555Z,10.20
2019-02-14T12:23:50.580Z,10.30
2019-02-14T12:26:17.205Z,10.20
2019-02-14T12:28:43.298Z,10.20
2019-02-14T12:31:09.442Z,10.30
2019-02-14T12:33:35.498Z,10.40
2019-02-14T12:36:01.516Z,10.40
2019-02-14T12:38:27.559Z,10.50
2019-02-14T12:40:54.060Z,10.40
2019-02-14T12:43:20.415Z,10.40
2019-02-14T12:45:46.472Z,10.40
2019-02-14T12:48:12.629Z,10.40
2019-02-14T12:50:38.648Z,10.40
2019-02-14T12:53:05.606Z,10.40
2019-02-14T12:55:31.643Z,10.40
2019-02-14T12:57:57.679Z,10.40
2019-02-14T13:00:23.725Z,10.50
2019-02-14T13:02:49.980Z,10.50
2019-02-14T13:05:16.092Z,10.50
2019-02-14T13:07:42.117Z,10.50
2019-02-14T13:10:10.472Z,10.50
2019-02-14T13:12:36.499Z,10.50
2019-02-14T13:15:08.451Z,10.60
2019-02-14T13:17:34.466Z,10.60
2019-02-14T13:20:00.496Z,10.70
2019-02-14T13:22:26.593Z,10.70
2019-02-14T13:24:52.935Z,10.70
2019-02-14T13:27:18.981Z,10.70
2019-02-14T13:29:45.027Z,10.70
2019-02-14T13:32:13.544Z,10.70
2019-02-14T13:34:39.291Z,10.80
2019-02-14T13:37:06.007Z,10.80
2019-02-14T13:39:32.789Z,10.90
2019-02-14T13:41:59.010Z,10.80
2019-02-14T13:44:25.254Z,10.80
2019-02-14T13:46:51.274Z,10.80
2019-02-14T13:49:17.397Z,10.80
2019-02-14T13:51:43.416Z,10.80
2019-02-14T13:54:09.459Z,10.80
2019-02-14T13:56:35.570Z,10.70
2019-02-14T13:59:01.733Z,10.70
2019-02-14T14:01:27.741Z,10.70
2019-02-14T14:03:53.800Z,10.70
2019-02-14T14:06:19.830Z,10.80
2019-02-14T14:08:45.882Z,10.80
2019-02-14T14:11:12.044Z,10.70
2019-02-14T14:13:38.071Z,10.70
2019-02-14T14:16:04.121Z,10.70
2019-02-14T14:18:30.143Z,10.60
2019-02-14T14:20:56.208Z,10.70
2019-02-14T14:23:22.265Z,10.70
2019-02-14T14:25:48.293Z,10.70
2019-02-14T14:28:14.337Z,10.70
2019-02-14T14:30:40.396Z,10.70
2019-02-14T14:33:06.437Z,10.70
2019-02-14T14:35:32.524Z,10.60
2019-02-14T14:37:58.643Z,10.60
2019-02-14T14:40:24.667Z,10.60
2019-02-14T14:42:52.614Z,10.50
2019-02-14T14:45:30.186Z,10.60
2019-02-14T14:47:56.285Z,10.60
2019-02-14T14:50:22.308Z,10.50
2019-02-14T14:52:48.344Z,10.50
2019-02-14T14:55:14.548Z,10.40
2019-02-14T14:57:40.607Z,10.40
2019-02-14T15:00:07.552Z,10.40
2019-02-14T15:02:33.616Z,10.40
2019-02-14T15:04:59.648Z,10.30
2019-02-14T15:07:25.681Z,10.30
2019-02-14T15:09:57.537Z,10.20
2019-02-14T15:12:19.678Z,10.20
2019-02-14T15:14:45.727Z,10.20
2019-02-14T15:17:12.020Z,10.20
2019-02-14T15:19:38.045Z,10.20
2019-02-14T15:22:05.126Z,10.10
2019-02-14T15:24:31.172Z,10.10
2019-02-14T15:26:57.202Z,10.10
2019-02-14T15:29:23.364Z,10.10
2019-02-14T15:31:49.708Z,10.10
2019-02-14T15:34:15.770Z,10.10
2019-02-14T15:36:41.828Z,10.10
2019-02-14T15:39:07.951Z,10.00
2019-02-14T15:41:34.000Z,10.00
2019-02-14T15:44:00.458Z,10.00
2019-02-14T15:46:26.556Z,9.90
2019-02-14T15:48:52.715Z,9.80
2019-02-14T15:51:20.026Z,9.70
2019-02-14T15:53:46.356Z,9.70
2019-02-14T15:56:12.568Z,9.60
2019-02-14T15:58:38.670Z,9.50
2019-02-14T16:01:05.166Z,9.50
2019-02-14T16:03:31.309Z,9.40
2019-02-14T16:05:57.392Z,9.30
2019-02-14T16:08:23.929Z,9.20
2019-02-14T16:10:53.529Z,9.20
2019-02-14T16:13:18.211Z,9.10
2019-02-14T16:15:44.412Z,9.10
2019-02-14T16:18:12.617Z,9.00
2019-02-14T16:20:40.363Z,9.00
2019-02-14T16:23:08.979Z,8.90
2019-02-14T16:25:35.075Z,8.80
2019-02-14T16:28:01.688Z,8.80
2019-02-14T16:30:29.394Z,8.70
2019-02-14T16:32:55.838Z,8.60
2019-02-14T16:35:24.037Z,8.60
2019-02-14T16:37:50.536Z,8.40
2019-02-14T16:40:16.895Z,8.40
2019-02-14T16:42:42.944Z,8.30
2019-02-14T16:45:09.156Z,8.30
2019-02-14T16:47:35.186Z,8.20
2019-02-14T16:50:01.291Z,8.20
2019-02-14T16:52:27.384Z,8.10
2019-02-14T16:54:53.475Z,8.00
2019-02-14T16:57:19.853Z,8.00
2019-02-14T16:59:45.867Z,8.00
2019-02-14T17:02:11.950Z,8.10
2019-02-14T17:04:37.988Z,8.00
2019-02-14T17:07:04.379Z,8.00
2019-02-14T17:09:30.477Z,7.90
2019-02-14T17:11:58.166Z,7.80
2019-02-14T17:14:24.186Z,7.80
2019-02-14T17:16:50.244Z,7.80
2019-02-14T17:19:16.282Z,7.70
2019-02-14T17:21:44.349Z,7.70
2019-02-14T17:24:10.460Z,7.70
2019-02-14T17:26:36.599Z,7.60
2019-02-14T17:29:02.651Z,7.60
2019-02-14T17:31:28.683Z,7.60
2019-02-14T17:33:54.707Z,7.50
2019-02-14T17:36:20.771Z,7.50
2019-02-14T17:38:46.851Z,7.50
2019-02-14T17:41:12.945Z,7.40
2019-02-14T17:43:38.959Z,7.40
2019-02-14T17:46:04.990Z,7.40
2019-02-14T17:48:31.443Z,7.30
2019-02-14T17:50:57.476Z,7.30
2019-02-14T17:53:23.619Z,7.20
2019-02-14T17:55:49.895Z,7.20
2019-02-14T17:58:35.873Z,7.10
2019-02-14T18:01:02.325Z,7.10
2019-02-14T18:03:28.394Z,7.10
2019-02-14T18:05:54.432Z,7.10
2019-02-14T18:08:26.415Z,7.10
2019-02-14T18:10:54.875Z,7.10
2019-02-14T18:13:20.690Z,7.00
2019-02-14T18:15:46.736Z,7.00
2019-02-14T18:18:12.759Z,7.00
2019-02-14T18:20:38.785Z,6.90
2019-02-14T18:23:04.855Z,6.90
2019-02-14T18:25:30.888Z,6.90
2019-02-14T18:27:57.066Z,6.80
2019-02-14T18:30:23.088Z,6.80
2019-02-14T18:32:49.112Z,6.80
2019-02-14T18:35:15.167Z,6.80
2019-02-14T18:37:41.234Z,6.80
2019-02-14T18:40:09.678Z,6.70
2019-02-14T18:42:37.541Z,6.70
2019-02-14T18:45:07.382Z,6.60
2019-02-14T18:47:39.475Z,6.60
2019-02-14T18:50:01.405Z,6.60
2019-02-14T18:52:27.420Z,6.60
2019-02-14T18:54:53.479Z,6.50
2019-02-14T18:57:19.556Z,6.50
2019-02-14T18:59:45.587Z,6.50
2019-02-14T19:02:11.674Z,6.50
2019-02-14T19:04:37.752Z,6.50
2019-02-14T19:07:04.395Z,6.50
2019-02-14T19:09:30.424Z,6.50
2019-02-14T19:11:56.620Z,6.40
2019-02-14T19:14:22.813Z,6.40
2019-02-14T19:16:48.937Z,6.40
2019-02-14T19:19:14.960Z,6.40
2019-02-14T19:21:41.000Z,6.40
2019-02-14T19:24:07.075Z,6.30
2019-02-14T19:26:33.939Z,6.30
2019-02-14T19:29:00.028Z,6.30
2019-02-14T19:31:26.079Z,6.30
2019-02-14T19:33:52.186Z,6.20
2019-02-14T19:36:18.620Z,6.20
2019-02-14T19:38:44.792Z,6.20
2019-02-14T19:41:10.853Z,6.20
2019-02-14T19:43:36.865Z,6.20
2019-02-14T19:46:03.018Z,6.10
2019-02-14T19:48:29.273Z,6.10
2019-02-14T19:50:55.375Z,6.10
2019-02-14T19:53:21.431Z,6.10
2019-02-14T19:55:47.444Z,6.10
2019-02-14T19:58:13.476Z,6.10
2019-02-14T20:00:39.824Z,6.00
2019-02-14T20:03:06.967Z,6.00
2019-02-14T20:05:32.992Z,6.00
2019-02-14T20:07:59.061Z,5.90
2019-02-14T20:10:25.115Z,5.90
2019-02-14T20:12:51.310Z,5.90
